Time,TemperatureF,DewpointF,PressureIn,WindDirection,WindDirectionDegrees,WindSpeedMPH,WindSpeedGustMPH,Humidity,HourlyPrecipIn,Conditions,Clouds,dailyrainin,SoftwareType,DateUTC
2013-04-27 00:03:00,52.0,31.0,30.39,NW,314,3.0,7.0,45,0.00,,,-99.99,,2013-04-27 04:03:00,
2013-04-27 00:13:00,52.0,31.0,30.39,NW,314,3.0,7.0,45,0.00,,,-99.99,,2013-04-27 04:13:00,
2013-04-27 00:23:00,52.0,31.0,30.39,NW,314,3.0,7.0,45,0.00,,,-99.99,,2013-04-27 04:23:00,
2013-04-27 00:33:00,50.0,31.0,30.40,NW,311,2.0,3.0,47,0.00,,,-99.99,,2013-04-27 04:33:00,
2013-04-27 00:43:00,50.0,31.0,30.40,NW,311,2.0,3.0,47,0.00,,,-99.99,,2013-04-27 04:43:00,
2013-04-27 00:53:00,50.0,31.0,30.40,NW,323,1.0,4.0,48,0.00,,,-99.99,,2013-04-27 04:53:00,
2013-04-27 01:02:00,50.0,31.0,30.39,NW,307,2.0,5.0,48,0.00,,,-99.99,,2013-04-27 05:02:00,
2013-04-27 01:12:00,50.0,31.0,30.39,NW,307,2.0,5.0,48,0.00,,,-99.99,,2013-04-27 05:12:00,
2013-04-27 01:22:00,50.0,32.0,30.40,NNW,345,2.0,5.0,49,0.00,,,-99.99,,2013-04-27 05:22:00,
2013-04-27 01:32:00,48.0,33.0,30.40,North,11,1.0,4.0,55,0.00,,,-99.99,,2013-04-27 05:32:00,
2013-04-27 01:42:00,48.0,33.0,30.40,North,11,1.0,4.0,55,0.00,,,-99.99,,2013-04-27 05:42:00,
2013-04-27 01:52:00,47.0,35.0,30.40,NNW,338,1.0,2.0,62,0.00,,,-99.99,,2013-04-27 05:52:00,
2013-04-27 02:02:00,47.0,35.0,30.40,NE,44,1.0,2.0,64,0.00,,,-99.99,,2013-04-27 06:02:00,
2013-04-27 02:12:00,47.0,35.0,30.40,NE,44,1.0,2.0,64,0.00,,,-99.99,,2013-04-27 06:12:00,
2013-04-27 02:22:00,46.0,36.0,30.40,NNE,18,0.0,0.0,69,0.00,,,-99.99,,2013-04-27 06:22:00,
2013-04-27 02:32:00,45.0,37.0,30.40,NE,44,0.0,0.0,73,0.00,,,-99.99,,2013-04-27 06:32:00,
2013-04-27 02:42:00,45.0,37.0,30.40,NE,44,0.0,0.0,73,0.00,,,-99.99,,2013-04-27 06:42:00,
2013-04-27 02:52:00,44.0,37.0,30.39,NW,304,0.0,1.0,77,0.00,,,-99.99,,2013-04-27 06:52:00,
2013-04-27 03:02:00,44.0,38.0,30.39,WNW,303,0.0,0.0,80,0.00,,,-99.99,,2013-04-27 07:02:00,
2013-04-27 03:11:00,44.0,38.0,30.39,WNW,303,0.0,0.0,80,0.00,,,-99.99,,2013-04-27 07:11:00,
2013-04-27 03:21:00,44.0,39.0,30.38,NW,304,0.0,1.0,81,0.00,,,-99.99,,2013-04-27 07:21:00,
2013-04-27 03:32:00,44.0,39.0,30.38,NW,304,0.0,1.0,81,0.00,,,-99.99,,2013-04-27 07:32:00,
2013-04-27 03:42:00,44.0,39.0,30.38,NW,304,0.0,1.0,81,0.00,,,-99.99,,2013-04-27 07:42:00,
2013-04-27 03:52:00,43.0,38.0,30.38,NW,304,0.0,1.0,81,0.00,,,-99.99,,2013-04-27 07:52:00,
2013-04-27 04:01:00,43.0,38.0,30.37,NW,304,0.0,0.0,82,0.00,,,-99.99,,2013-04-27 08:01:00,
2013-04-27 04:12:00,43.0,38.0,30.37,NW,304,0.0,0.0,82,0.00,,,-99.99,,2013-04-27 08:12:00,
2013-04-27 04:21:00,43.0,39.0,30.37,WNW,303,0.0,0.0,85,0.00,,,-99.99,,2013-04-27 08:21:00,
2013-04-27 04:33:00,42.0,38.0,30.38,WNW,303,0.0,0.0,86,0.00,,,-99.99,,2013-04-27 08:33:00,
2013-04-27 04:42:00,42.0,38.0,30.38,WNW,303,0.0,0.0,86,0.00,,,-99.99,,2013-04-27 08:42:00,
2013-04-27 04:50:00,41.0,38.0,30.38,NW,304,0.0,0.0,89,0.00,,,-99.99,,2013-04-27 08:50:00,
2013-04-27 04:51:00,42.0,38.0,30.38,WNW,303,0.0,0.0,86,0.00,,,-99.99,,2013-04-27 08:51:00,
2013-04-27 05:01:00,41.0,38.0,30.38,NW,304,0.0,0.0,89,0.00,,,-99.99,,2013-04-27 09:01:00,
2013-04-27 05:11:00,41.0,38.0,30.38,NW,304,0.0,0.0,89,0.00,,,-99.99,,2013-04-27 09:11:00,
2013-04-27 05:22:00,41.0,38.0,30.38,NW,304,0.0,0.0,89,0.00,,,-99.99,,2013-04-27 09:22:00,
2013-04-27 05:33:00,41.0,38.0,30.38,NW,304,0.0,0.0,89,0.00,,,-99.99,,2013-04-27 09:33:00,
2013-04-27 05:42:00,41.0,38.0,30.38,NW,304,0.0,0.0,89,0.00,,,-99.99,,2013-04-27 09:42:00,
2013-04-27 06:03:00,40.0,38.0,30.39,West,281,0.0,0.0,91,0.00,,,-99.99,,2013-04-27 10:03:00,
2013-04-27 06:12:00,40.0,38.0,30.39,West,281,0.0,0.0,91,0.00,,,-99.99,,2013-04-27 10:12:00,
2013-04-27 06:22:00,40.0,38.0,30.39,West,281,0.0,0.0,91,0.00,,,-99.99,,2013-04-27 10:22:00,
2013-04-27 06:33:00,40.0,38.0,30.39,West,281,0.0,0.0,91,0.00,,,-99.99,,2013-04-27 10:33:00,
2013-04-27 06:42:00,40.0,38.0,30.39,West,281,0.0,0.0,91,0.00,,,-99.99,,2013-04-27 10:42:00,
2013-04-27 06:52:00,40.0,38.0,30.39,West,281,0.0,0.0,91,0.00,,,-99.99,,2013-04-27 10:52:00,
2013-04-27 07:02:00,40.0,38.0,30.39,West,281,0.0,0.0,91,0.00,,,-99.99,,2013-04-27 11:02:00,
2013-04-27 07:12:00,40.0,38.0,30.40,West,281,0.0,0.0,91,0.00,,,-99.99,,2013-04-27 11:12:00,
2013-04-27 07:22:00,40.0,38.0,30.40,West,281,0.0,0.0,91,0.00,,,-99.99,,2013-04-27 11:22:00,
2013-04-27 07:32:00,41.0,36.0,30.40,NNE,24,0.0,0.0,82,0.00,,,-99.99,,2013-04-27 11:32:00,
2013-04-27 07:42:00,41.0,36.0,30.40,NNE,24,0.0,0.0,82,0.00,,,-99.99,,2013-04-27 11:42:00,
2013-04-27 07:52:00,41.0,35.0,30.40,NNE,24,0.0,0.0,80,0.00,,,-99.99,,2013-04-27 11:52:00,
2013-04-27 08:01:00,44.0,34.0,30.40,NNE,26,1.0,3.0,69,0.00,,,-99.99,,2013-04-27 12:01:00,
2013-04-27 08:11:00,44.0,34.0,30.40,NNE,26,1.0,3.0,69,0.00,,,-99.99,,2013-04-27 12:11:00,
2013-04-27 08:22:00,44.0,34.0,30.40,NNE,26,1.0,3.0,69,0.00,,,-99.99,,2013-04-27 12:22:00,
2013-04-27 08:32:00,47.0,35.0,30.40,NNE,27,1.0,2.0,63,0.00,,,-99.99,,2013-04-27 12:32:00,
2013-04-27 08:42:00,47.0,35.0,30.40,NNE,27,1.0,2.0,63,0.00,,,-99.99,,2013-04-27 12:42:00,
2013-04-27 08:52:00,48.0,36.0,30.40,NNE,33,1.0,3.0,62,0.00,,,-99.99,,2013-04-27 12:52:00,
2013-04-27 09:02:00,50.0,37.0,30.40,NE,37,1.0,3.0,60,0.00,,,-99.99,,2013-04-27 13:02:00,
2013-04-27 09:11:00,50.0,37.0,30.40,NE,37,1.0,3.0,60,0.00,,,-99.99,,2013-04-27 13:11:00,
2013-04-27 09:21:00,50.0,37.0,30.40,NNW,332,1.0,3.0,60,0.00,,,-99.99,,2013-04-27 13:21:00,
2013-04-27 09:32:00,51.0,37.0,30.40,NE,49,1.0,4.0,59,0.00,,,-99.99,,2013-04-27 13:32:00,
2013-04-27 09:42:00,51.0,37.0,30.40,NE,49,1.0,4.0,59,0.00,,,-99.99,,2013-04-27 13:42:00,
2013-04-27 09:52:00,51.0,37.0,30.40,NE,49,1.0,4.0,59,0.00,,,-99.99,,2013-04-27 13:52:00,
2013-04-27 10:02:00,53.0,38.0,30.39,West,271,2.0,5.0,56,0.00,,,-99.99,,2013-04-27 14:02:00,
2013-04-27 10:11:00,53.0,38.0,30.39,West,271,2.0,5.0,56,0.00,,,-99.99,,2013-04-27 14:11:00,
2013-04-27 10:22:00,53.0,38.0,30.39,West,271,2.0,5.0,56,0.00,,,-99.99,,2013-04-27 14:22:00,
2013-04-27 10:32:00,54.0,37.0,30.39,ENE,65,3.0,7.0,52,0.00,,,-99.99,,2013-04-27 14:32:00,
2013-04-27 10:42:00,54.0,37.0,30.39,ENE,65,3.0,7.0,52,0.00,,,-99.99,,2013-04-27 14:42:00,
2013-04-27 10:52:00,55.0,37.0,30.39,NW,309,3.0,8.0,50,0.00,,,-99.99,,2013-04-27 14:52:00,
2013-04-27 11:01:00,56.0,37.0,30.39,West,276,3.0,7.0,49,0.00,,,-99.99,,2013-04-27 15:01:00,
2013-04-27 11:12:00,56.0,37.0,30.39,West,276,3.0,7.0,49,0.00,,,-99.99,,2013-04-27 15:12:00,
2013-04-27 11:22:00,56.0,38.0,30.40,West,265,3.0,10.0,50,0.00,,,-99.99,,2013-04-27 15:22:00,
2013-04-27 11:33:00,56.0,38.0,30.40,West,265,3.0,10.0,50,0.00,,,-99.99,,2013-04-27 15:33:00,
2013-04-27 11:42:00,56.0,38.0,30.40,West,265,3.0,10.0,50,0.00,,,-99.99,,2013-04-27 15:42:00,
2013-04-27 11:52:00,58.0,37.0,30.38,NNE,27,2.0,5.0,45,0.00,,,-99.99,,2013-04-27 15:52:00,
2013-04-27 12:03:00,58.0,37.0,30.38,ENE,68,3.0,5.0,45,0.00,,,-99.99,,2013-04-27 16:03:00,
2013-04-27 12:13:00,58.0,37.0,30.38,ENE,68,3.0,5.0,45,0.00,,,-99.99,,2013-04-27 16:13:00,
2013-04-27 12:22:00,59.0,37.0,30.37,North,349,3.0,9.0,43,0.00,,,-99.99,,2013-04-27 16:22:00,
2013-04-27 12:33:00,61.0,38.0,30.37,WNW,300,1.0,4.0,43,0.00,,,-99.99,,2013-04-27 16:33:00,
2013-04-27 12:42:00,61.0,38.0,30.37,WNW,300,1.0,4.0,43,0.00,,,-99.99,,2013-04-27 16:42:00,
2013-04-27 12:53:00,61.0,38.0,30.37,WNW,300,1.0,4.0,43,0.00,,,-99.99,,2013-04-27 16:53:00,
2013-04-27 13:02:00,61.0,38.0,30.37,WNW,300,1.0,4.0,43,0.00,,,-99.99,,2013-04-27 17:02:00,
2013-04-27 13:12:00,61.0,38.0,30.37,WNW,300,1.0,4.0,43,0.00,,,-99.99,,2013-04-27 17:12:00,
2013-04-27 13:22:00,61.0,35.0,30.35,NNE,29,4.0,11.0,37,0.00,,,-99.99,,2013-04-27 17:22:00,
2013-04-27 13:32:00,61.0,35.0,30.35,NNE,29,4.0,11.0,37,0.00,,,-99.99,,2013-04-27 17:32:00,
2013-04-27 13:42:00,61.0,35.0,30.35,NNE,29,4.0,11.0,37,0.00,,,-99.99,,2013-04-27 17:42:00,
2013-04-27 13:53:00,63.0,34.0,30.34,NW,311,2.0,5.0,34,0.00,,,-99.99,,2013-04-27 17:53:00,
2013-04-27 14:02:00,63.0,33.0,30.33,North,358,3.0,6.0,33,0.00,,,-99.99,,2013-04-27 18:02:00,
2013-04-27 14:12:00,63.0,33.0,30.33,North,358,3.0,6.0,33,0.00,,,-99.99,,2013-04-27 18:12:00,
2013-04-27 14:22:00,62.0,41.0,30.32,SSE,152,3.0,11.0,46,0.00,,,-99.99,,2013-04-27 18:22:00,
2013-04-27 14:32:00,63.0,41.0,30.31,ENE,71,2.0,6.0,45,0.00,,,-99.99,,2013-04-27 18:32:00,
2013-04-27 14:42:00,63.0,41.0,30.31,ENE,71,2.0,6.0,45,0.00,,,-99.99,,2013-04-27 18:42:00,
2013-04-27 14:52:00,62.0,41.0,30.31,South,181,3.0,7.0,46,0.00,,,-99.99,,2013-04-27 18:52:00,
2013-04-27 15:02:00,62.0,41.0,30.31,South,181,3.0,7.0,46,0.00,,,-99.99,,2013-04-27 19:02:00,
2013-04-27 15:11:00,62.0,41.0,30.31,South,181,3.0,7.0,46,0.00,,,-99.99,,2013-04-27 19:11:00,
2013-04-27 15:21:00,62.0,40.0,30.29,SSE,153,3.0,8.0,45,0.00,,,-99.99,,2013-04-27 19:21:00,
2013-04-27 15:32:00,62.0,40.0,30.29,East,98,3.0,7.0,44,0.00,,,-99.99,,2013-04-27 19:32:00,
2013-04-27 15:42:00,62.0,40.0,30.29,East,98,3.0,7.0,44,0.00,,,-99.99,,2013-04-27 19:42:00,
2013-04-27 15:53:00,62.0,40.0,30.29,East,98,3.0,7.0,44,0.00,,,-99.99,,2013-04-27 19:53:00,
2013-04-27 16:02:00,63.0,40.0,30.27,SE,130,2.0,5.0,42,0.00,,,-99.99,,2013-04-27 20:02:00,
2013-04-27 16:11:00,63.0,40.0,30.27,SE,130,2.0,5.0,42,0.00,,,-99.99,,2013-04-27 20:11:00,
2013-04-27 16:21:00,63.0,40.0,30.27,SSE,156,3.0,7.0,42,0.00,,,-99.99,,2013-04-27 20:21:00,
2013-04-27 16:32:00,62.0,40.0,30.27,SE,132,4.0,8.0,45,0.00,,,-99.99,,2013-04-27 20:32:00,
2013-04-27 16:42:00,62.0,40.0,30.27,SE,132,4.0,8.0,45,0.00,,,-99.99,,2013-04-27 20:42:00,
2013-04-27 16:52:00,62.0,40.0,30.27,SSW,195,4.0,9.0,44,0.00,,,-99.99,,2013-04-27 20:52:00,
2013-04-27 17:02:00,62.0,39.0,30.28,ESE,109,3.0,8.0,42,0.00,,,-99.99,,2013-04-27 21:02:00,
2013-04-27 17:12:00,62.0,39.0,30.28,ESE,109,3.0,8.0,42,0.00,,,-99.99,,2013-04-27 21:12:00,
2013-04-27 17:21:00,61.0,40.0,30.27,East,80,3.0,7.0,45,0.00,,,-99.99,,2013-04-27 21:21:00,
2013-04-27 17:33:00,60.0,39.0,30.28,SSE,152,3.0,10.0,46,0.00,,,-99.99,,2013-04-27 21:33:00,
2013-04-27 17:43:00,60.0,39.0,30.28,SSE,152,3.0,10.0,46,0.00,,,-99.99,,2013-04-27 21:43:00,
2013-04-27 17:53:00,60.0,40.0,30.28,East,101,3.0,9.0,47,0.00,,,-99.99,,2013-04-27 21:53:00,
2013-04-27 18:03:00,59.0,40.0,30.28,ESE,110,3.0,8.0,50,0.00,,,-99.99,,2013-04-27 22:03:00,
2013-04-27 18:13:00,59.0,40.0,30.28,ESE,110,3.0,8.0,50,0.00,,,-99.99,,2013-04-27 22:13:00,
2013-04-27 18:22:00,58.0,40.0,30.29,ESE,110,3.0,7.0,52,0.00,,,-99.99,,2013-04-27 22:22:00,
2013-04-27 18:32:00,57.0,41.0,30.29,SE,145,3.0,6.0,55,0.00,,,-99.99,,2013-04-27 22:32:00,
2013-04-27 18:42:00,57.0,41.0,30.29,SE,145,3.0,6.0,55,0.00,,,-99.99,,2013-04-27 22:42:00,
2013-04-27 18:52:00,56.0,41.0,30.29,WSW,256,2.0,8.0,58,0.00,,,-99.99,,2013-04-27 22:52:00,
2013-04-27 19:02:00,55.0,42.0,30.29,East,84,3.0,5.0,62,0.00,,,-99.99,,2013-04-27 23:02:00,
2013-04-27 19:12:00,55.0,42.0,30.29,East,84,3.0,5.0,62,0.00,,,-99.99,,2013-04-27 23:12:00,
2013-04-27 19:22:00,55.0,42.0,30.29,East,84,3.0,5.0,62,0.00,,,-99.99,,2013-04-27 23:22:00,
2013-04-27 19:32:00,53.0,42.0,30.29,East,101,3.0,5.0,65,0.00,,,-99.99,,2013-04-27 23:32:00,
2013-04-27 19:42:00,53.0,42.0,30.29,East,101,3.0,5.0,65,0.00,,,-99.99,,2013-04-27 23:42:00,
2013-04-27 19:52:00,52.0,40.0,30.29,ESE,122,1.0,4.0,64,0.00,,,-99.99,,2013-04-27 23:52:00,
2013-04-27 20:01:00,51.0,40.0,30.29,ESE,122,1.0,4.0,67,0.00,,,-99.99,,2013-04-28 00:01:00,
2013-04-27 20:12:00,51.0,40.0,30.29,ESE,122,1.0,4.0,67,0.00,,,-99.99,,2013-04-28 00:12:00,
2013-04-27 20:21:00,51.0,42.0,30.30,SE,142,1.0,2.0,70,0.00,,,-99.99,,2013-04-28 00:21:00,
2013-04-27 20:32:00,51.0,42.0,30.30,SE,142,1.0,2.0,70,0.00,,,-99.99,,2013-04-28 00:32:00,
2013-04-27 20:43:00,51.0,42.0,30.30,SE,142,1.0,2.0,70,0.00,,,-99.99,,2013-04-28 00:43:00,
2013-04-27 20:52:00,50.0,42.0,30.30,SSE,159,1.0,4.0,74,0.00,,,-99.99,,2013-04-28 00:52:00,
2013-04-27 21:02:00,50.0,42.0,30.30,SSE,159,1.0,4.0,74,0.00,,,-99.99,,2013-04-28 01:02:00,
2013-04-27 21:11:00,50.0,42.0,30.30,SSE,159,1.0,4.0,74,0.00,,,-99.99,,2013-04-28 01:11:00,
2013-04-27 21:22:00,50.0,42.0,30.30,SSE,159,1.0,4.0,74,0.00,,,-99.99,,2013-04-28 01:22:00,
2013-04-27 21:32:00,48.0,43.0,30.31,SE,132,1.0,1.0,83,0.00,,,-99.99,,2013-04-28 01:32:00,
2013-04-27 21:42:00,48.0,43.0,30.31,SE,132,1.0,1.0,83,0.00,,,-99.99,,2013-04-28 01:42:00,
2013-04-27 21:52:00,47.0,43.0,30.32,South,188,0.0,2.0,87,0.00,,,-99.99,,2013-04-28 01:52:00,
2013-04-27 22:02:00,46.0,43.0,30.32,SW,219,0.0,0.0,88,0.00,,,-99.99,,2013-04-28 02:02:00,
2013-04-27 22:12:00,46.0,43.0,30.32,SW,219,0.0,0.0,88,0.00,,,-99.99,,2013-04-28 02:12:00,
2013-04-27 22:22:00,46.0,43.0,30.32,ESE,106,0.0,0.0,89,0.00,,,-99.99,,2013-04-28 02:22:00,
2013-04-27 22:32:00,46.0,43.0,30.32,ESE,106,0.0,0.0,89,0.00,,,-99.99,,2013-04-28 02:32:00,
2013-04-27 22:42:00,46.0,43.0,30.32,ESE,106,0.0,0.0,89,0.00,,,-99.99,,2013-04-28 02:42:00,
2013-04-27 22:52:00,45.0,43.0,30.32,SE,124,0.0,0.0,91,0.00,,,-99.99,,2013-04-28 02:52:00,
2013-04-27 23:01:00,45.0,43.0,30.32,SSE,152,0.0,0.0,92,0.00,,,-99.99,,2013-04-28 03:01:00,
2013-04-27 23:11:00,45.0,43.0,30.32,SSE,152,0.0,0.0,92,0.00,,,-99.99,,2013-04-28 03:11:00,
2013-04-27 23:21:00,45.0,43.0,30.32,SSE,152,0.0,0.0,92,0.00,,,-99.99,,2013-04-28 03:21:00,
2013-04-27 23:33:00,45.0,43.0,30.32,ESE,123,0.0,0.0,93,0.00,,,-99.99,,2013-04-28 03:33:00,
2013-04-27 23:43:00,45.0,43.0,30.32,ESE,123,0.0,0.0,93,0.00,,,-99.99,,2013-04-28 03:43:00,
2013-04-27 23:53:00,44.0,42.0,30.32,SSE,150,0.0,0.0,94,0.00,,,-99.99,,2013-04-28 03:53:00,